Terminal Aerodrome Forecast
Issued by NWS

Home | Current Version | Previous Version | Graphics & Text | Print | Product List | Glossary On
Versions: 1 2 3 4 5 6 7 8 9 10 11 12 13 14 15 16 17 18 19 20 21 22 23 24 25 26 27 28 29 30 31 32 33 34 35 36 37 38 39 40 41 42
000
FTUS43 KGRB 201246 AAA
TAFRHI
TAF AMD
KRHI 201246Z 2013/2112 19003KT 6SM BR OVC005
      TEMPO 2013/2016 3SM -PLSN BR OVC003
     FM202100 27007G15KT P6SM OVC008
     FM202300 30008G15KT P6SM BKN012
     FM210500 30008KT P6SM BKN020=

USA.gov is the U.S. government's official web portal to all federal, state and local government web resources and services.